sensor_id;sensor_type;location;lat;lon;timestamp;P1;durP1;ratioP1;P2;durP2;ratioP2
1204;SDS011;592;48.764;9.174;2023-06-22T00:01:00;11.37;;;6.40;;
1204;SDS011;592;48.764;9.174;2023-06-22T00:03:26;13.87;;;8.47;;
1204;SDS011;592;48.764;9.174;2023-06-22T00:05:53;10.90;;;7.47;;
1204;SDS011;592;48.764;9.174;2023-06-22T00:08:21;13.17;;;7.80;;
1204;SDS011;592;48.764;9.174;2023-06-22T00:10:48;11.73;;;8.17;;
1204;SDS011;592;48.764;9.174;2023-06-22T00:13:14;13.33;;;8.13;;
1204;SDS011;592;48.764;9.174;2023-06-22T00:15:42;12.53;;;8.10;;
1204;SDS011;592;48.764;9.174;2023-06-22T00:18:10;10.97;;;7.70;;
1204;SDS011;592;48.764;9.174;2023-06-22T00:20:38;12.83;;;8.27;;
1204;SDS011;592;48.764;9.174;2023-06-22T00:23:06;13.20;;;8.47;;
1204;SDS011;592;48.764;9.174;2023-06-22T00:25:34;10.87;;;7.60;;
1204;SDS011;592;48.764;9.174;2023-06-22T00:28:02;14.30;;;8.77;;
1204;SDS011;592;48.764;9.174;2023-06-22T00:30:29;9.53;;;8.10;;
1204;SDS011;592;48.764;9.174;2023-06-22T00:32:59;13.93;;;8.60;;
1204;SDS011;592;48.764;9.174;2023-06-22T00:35:26;11.67;;;7.90;;
1204;SDS011;592;48.764;9.174;2023-06-22T00:37:54;10.57;;;7.17;;
1204;SDS011;592;48.764;9.174;2023-06-22T00:40:25;11.77;;;7.60;;
1204;SDS011;592;48.764;9.174;2023-06-22T00:42:54;11.03;;;7.20;;
1204;SDS011;592;48.764;9.174;2023-06-22T00:45:21;10.90;;;7.40;;
1204;SDS011;592;48.764;9.174;2023-06-22T00:47:49;16.43;;;9.17;;
1204;SDS011;592;48.764;9.174;2023-06-22T00:50:18;14.40;;;8.20;;
1204;SDS011;592;48.764;9.174;2023-06-22T00:52:48;11.60;;;8.27;;
1204;SDS011;592;48.764;9.174;2023-06-22T00:55:18;9.33;;;7.03;;
1204;SDS011;592;48.764;9.174;2023-06-22T00:57:45;11.60;;;7.80;;
1204;SDS011;592;48.764;9.174;2023-06-22T01:00:14;12.33;;;8.53;;
1204;SDS011;592;48.764;9.174;2023-06-22T01:02:45;14.03;;;7.63;;
1204;SDS011;592;48.764;9.174;2023-06-22T01:05:17;12.10;;;8.30;;
1204;SDS011;592;48.764;9.174;2023-06-22T01:07:45;11.53;;;7.60;;
1204;SDS011;592;48.764;9.174;2023-06-22T01:10:22;12.93;;;8.57;;
1204;SDS011;592;48.764;9.174;2023-06-22T01:12:53;14.43;;;9.00;;
1204;SDS011;592;48.764;9.174;2023-06-22T01:15:27;11.10;;;7.40;;
1204;SDS011;592;48.764;9.174;2023-06-22T01:17:57;14.43;;;8.77;;
1204;SDS011;592;48.764;9.174;2023-06-22T01:20:28;12.13;;;8.27;;
1204;SDS011;592;48.764;9.174;2023-06-22T01:23:01;10.13;;;7.10;;
1204;SDS011;592;48.764;9.174;2023-06-22T01:25:33;10.33;;;7.10;;
1204;SDS011;592;48.764;9.174;2023-06-22T01:28:11;11.97;;;7.50;;
1204;SDS011;592;48.764;9.174;2023-06-22T01:30:52;10.00;;;6.87;;
1204;SDS011;592;48.764;9.174;2023-06-22T01:33:28;10.57;;;7.57;;
1204;SDS011;592;48.764;9.174;2023-06-22T01:35:57;13.47;;;8.00;;
1204;SDS011;592;48.764;9.174;2023-06-22T01:38:25;10.67;;;7.27;;
1204;SDS011;592;48.764;9.174;2023-06-22T01:40:54;13.90;;;7.80;;
1204;SDS011;592;48.764;9.174;2023-06-22T01:43:22;10.53;;;8.03;;
1204;SDS011;592;48.764;9.174;2023-06-22T01:45:52;14.30;;;7.93;;
1204;SDS011;592;48.764;9.174;2023-06-22T01:48:19;10.90;;;7.07;;
1204;SDS011;592;48.764;9.174;2023-06-22T01:50:47;12.70;;;7.30;;
1204;SDS011;592;48.764;9.174;2023-06-22T01:53:14;11.10;;;7.20;;
1204;SDS011;592;48.764;9.174;2023-06-22T01:55:41;14.30;;;8.40;;
1204;SDS011;592;48.764;9.174;2023-06-22T01:58:07;14.77;;;7.60;;
1204;SDS011;592;48.764;9.174;2023-06-22T02:00:35;10.23;;;7.63;;
1204;SDS011;592;48.764;9.174;2023-06-22T02:03:08;9.97;;;7.47;;
1204;SDS011;592;48.764;9.174;2023-06-22T02:05:42;11.13;;;7.17;;
1204;SDS011;592;48.764;9.174;2023-06-22T02:08:15;13.20;;;7.60;;
1204;SDS011;592;48.764;9.174;2023-06-22T02:10:46;9.10;;;6.80;;
1204;SDS011;592;48.764;9.174;2023-06-22T02:13:14;12.60;;;7.83;;
1204;SDS011;592;48.764;9.174;2023-06-22T02:15:42;12.27;;;7.80;;
1204;SDS011;592;48.764;9.174;2023-06-22T02:18:11;9.70;;;7.57;;
1204;SDS011;592;48.764;9.174;2023-06-22T02:20:38;11.23;;;7.77;;
1204;SDS011;592;48.764;9.174;2023-06-22T02:23:06;12.23;;;8.27;;
1204;SDS011;592;48.764;9.174;2023-06-22T02:25:33;16.17;;;8.80;;
1204;SDS011;592;48.764;9.174;2023-06-22T02:28:00;16.40;;;7.60;;
1204;SDS011;592;48.764;9.174;2023-06-22T02:30:27;15.40;;;8.20;;
1204;SDS011;592;48.764;9.174;2023-06-22T02:32:54;12.10;;;7.63;;
1204;SDS011;592;48.764;9.174;2023-06-22T02:35:25;11.50;;;7.97;;
1204;SDS011;592;48.764;9.174;2023-06-22T02:37:52;13.10;;;8.90;;
1204;SDS011;592;48.764;9.174;2023-06-22T02:40:19;9.23;;;6.60;;
1204;SDS011;592;48.764;9.174;2023-06-22T02:42:46;11.97;;;8.03;;
1204;SDS011;592;48.764;9.174;2023-06-22T02:45:12;12.37;;;7.33;;
1204;SDS011;592;48.764;9.174;2023-06-22T02:47:39;12.17;;;8.20;;
1204;SDS011;592;48.764;9.174;2023-06-22T02:50:06;10.20;;;7.20;;
1204;SDS011;592;48.764;9.174;2023-06-22T02:52:36;12.73;;;8.80;;
1204;SDS011;592;48.764;9.174;2023-06-22T02:55:03;12.20;;;7.93;;
1204;SDS011;592;48.764;9.174;2023-06-22T02:57:30;11.53;;;8.10;;
1204;SDS011;592;48.764;9.174;2023-06-22T02:59:57;12.63;;;8.73;;
1204;SDS011;592;48.764;9.174;2023-06-22T03:02:24;11.80;;;8.47;;
1204;SDS011;592;48.764;9.174;2023-06-22T03:04:51;11.87;;;8.43;;
1204;SDS011;592;48.764;9.174;2023-06-22T03:07:18;15.00;;;8.60;;
1204;SDS011;592;48.764;9.174;2023-06-22T03:09:47;13.23;;;7.63;;
1204;SDS011;592;48.764;9.174;2023-06-22T03:12:13;10.50;;;7.30;;
1204;SDS011;592;48.764;9.174;2023-06-22T03:14:40;12.80;;;7.80;;
1204;SDS011;592;48.764;9.174;2023-06-22T03:17:07;11.57;;;7.63;;
1204;SDS011;592;48.764;9.174;2023-06-22T03:19:33;12.47;;;8.07;;
1204;SDS011;592;48.764;9.174;2023-06-22T03:22:00;12.47;;;8.10;;
1204;SDS011;592;48.764;9.174;2023-06-22T03:24:27;12.30;;;7.37;;
1204;SDS011;592;48.764;9.174;2023-06-22T03:26:56;13.70;;;8.70;;
1204;SDS011;592;48.764;9.174;2023-06-22T03:29:22;13.40;;;8.93;;
1204;SDS011;592;48.764;9.174;2023-06-22T03:31:50;14.37;;;9.00;;
1204;SDS011;592;48.764;9.174;2023-06-22T03:34:17;12.00;;;8.40;;
1204;SDS011;592;48.764;9.174;2023-06-22T03:36:43;12.93;;;8.13;;
1204;SDS011;592;48.764;9.174;2023-06-22T03:39:11;14.43;;;8.37;;
1204;SDS011;592;48.764;9.174;2023-06-22T03:41:38;12.73;;;8.17;;
1204;SDS011;592;48.764;9.174;2023-06-22T03:44:06;9.73;;;7.17;;
1204;SDS011;592;48.764;9.174;2023-06-22T03:46:35;11.57;;;7.83;;
1204;SDS011;592;48.764;9.174;2023-06-22T03:49:02;14.10;;;9.23;;
1204;SDS011;592;48.764;9.174;2023-06-22T03:51:29;12.83;;;9.17;;
1204;SDS011;592;48.764;9.174;2023-06-22T03:53:56;10.93;;;7.87;;
1204;SDS011;592;48.764;9.174;2023-06-22T03:56:23;14.80;;;8.70;;
1204;SDS011;592;48.764;9.174;2023-06-22T03:58:50;13.17;;;8.60;;
1204;SDS011;592;48.764;9.174;2023-06-22T04:01:18;16.30;;;8.00;;
1204;SDS011;592;48.764;9.174;2023-06-22T04:03:45;13.07;;;8.33;;
1204;SDS011;592;48.764;9.174;2023-06-22T04:06:14;14.30;;;8.70;;
1204;SDS011;592;48.764;9.174;2023-06-22T04:08:41;17.33;;;8.90;;
1204;SDS011;592;48.764;9.174;2023-06-22T04:11:08;13.50;;;8.87;;
1204;SDS011;592;48.764;9.174;2023-06-22T04:13:34;13.10;;;8.83;;
1204;SDS011;592;48.764;9.174;2023-06-22T04:16:01;12.20;;;8.37;;
1204;SDS011;592;48.764;9.174;2023-06-22T04:18:30;12.40;;;7.83;;
1204;SDS011;592;48.764;9.174;2023-06-22T04:20:57;13.40;;;9.07;;
1204;SDS011;592;48.764;9.174;2023-06-22T04:23:24;13.07;;;8.57;;
1204;SDS011;592;48.764;9.174;2023-06-22T04:25:50;11.67;;;7.83;;
1204;SDS011;592;48.764;9.174;2023-06-22T04:28:18;17.37;;;9.00;;
1204;SDS011;592;48.764;9.174;2023-06-22T04:30:44;13.60;;;8.87;;
1204;SDS011;592;48.764;9.174;2023-06-22T04:33:12;12.40;;;8.83;;
1204;SDS011;592;48.764;9.174;2023-06-22T04:35:41;13.40;;;9.67;;
1204;SDS011;592;48.764;9.174;2023-06-22T04:38:08;13.53;;;8.77;;
1204;SDS011;592;48.764;9.174;2023-06-22T04:40:38;13.63;;;8.80;;
1204;SDS011;592;48.764;9.174;2023-06-22T04:43:05;11.87;;;8.43;;
1204;SDS011;592;48.764;9.174;2023-06-22T04:45:31;12.93;;;8.70;;
1204;SDS011;592;48.764;9.174;2023-06-22T04:47:58;14.27;;;8.60;;
1204;SDS011;592;48.764;9.174;2023-06-22T04:50:25;11.20;;;8.23;;
1204;SDS011;592;48.764;9.174;2023-06-22T04:52:53;13.20;;;7.90;;
1204;SDS011;592;48.764;9.174;2023-06-22T04:55:20;15.80;;;9.70;;
1204;SDS011;592;48.764;9.174;2023-06-22T04:57:47;12.50;;;8.33;;
1204;SDS011;592;48.764;9.174;2023-06-22T05:00:15;13.33;;;9.03;;
1204;SDS011;592;48.764;9.174;2023-06-22T05:02:43;15.33;;;9.77;;
1204;SDS011;592;48.764;9.174;2023-06-22T05:05:10;15.57;;;8.93;;
1204;SDS011;592;48.764;9.174;2023-06-22T05:07:39;14.50;;;9.83;;
1204;SDS011;592;48.764;9.174;2023-06-22T05:10:09;15.27;;;9.60;;
1204;SDS011;592;48.764;9.174;2023-06-22T05:12:37;14.33;;;9.53;;
1204;SDS011;592;48.764;9.174;2023-06-22T05:15:05;13.40;;;8.90;;
1204;SDS011;592;48.764;9.174;2023-06-22T05:17:32;16.10;;;9.23;;
1204;SDS011;592;48.764;9.174;2023-06-22T05:19:59;17.43;;;9.23;;
1204;SDS011;592;48.764;9.174;2023-06-22T05:22:27;14.07;;;10.00;;
1204;SDS011;592;48.764;9.174;2023-06-22T05:24:54;14.20;;;9.97;;
1204;SDS011;592;48.764;9.174;2023-06-22T05:27:22;12.03;;;9.33;;
1204;SDS011;592;48.764;9.174;2023-06-22T05:29:48;17.73;;;11.20;;
1204;SDS011;592;48.764;9.174;2023-06-22T05:32:15;15.23;;;9.80;;
1204;SDS011;592;48.764;9.174;2023-06-22T05:34:42;18.83;;;9.00;;
1204;SDS011;592;48.764;9.174;2023-06-22T05:37:08;15.93;;;10.10;;
1204;SDS011;592;48.764;9.174;2023-06-22T05:39:35;14.70;;;11.03;;
1204;SDS011;592;48.764;9.174;2023-06-22T05:42:03;11.53;;;8.50;;
1204;SDS011;592;48.764;9.174;2023-06-22T05:44:33;17.47;;;9.90;;
1204;SDS011;592;48.764;9.174;2023-06-22T05:47:00;16.67;;;10.33;;
1204;SDS011;592;48.764;9.174;2023-06-22T05:49:26;14.30;;;9.13;;
1204;SDS011;592;48.764;9.174;2023-06-22T05:51:57;15.70;;;10.50;;
1204;SDS011;592;48.764;9.174;2023-06-22T05:54:24;14.97;;;8.90;;
1204;SDS011;592;48.764;9.174;2023-06-22T05:56:51;13.30;;;9.37;;
1204;SDS011;592;48.764;9.174;2023-06-22T05:59:18;15.27;;;8.90;;
1204;SDS011;592;48.764;9.174;2023-06-22T06:01:46;13.63;;;8.53;;
1204;SDS011;592;48.764;9.174;2023-06-22T06:04:15;14.67;;;8.33;;
1204;SDS011;592;48.764;9.174;2023-06-22T06:06:42;12.97;;;8.67;;
1204;SDS011;592;48.764;9.174;2023-06-22T06:09:09;11.67;;;8.20;;
1204;SDS011;592;48.764;9.174;2023-06-22T06:11:36;14.63;;;8.17;;
1204;SDS011;592;48.764;9.174;2023-06-22T06:14:03;12.93;;;8.07;;
1204;SDS011;592;48.764;9.174;2023-06-22T06:16:30;11.90;;;7.87;;
1204;SDS011;592;48.764;9.174;2023-06-22T06:18:58;11.77;;;8.40;;
1204;SDS011;592;48.764;9.174;2023-06-22T06:21:25;12.43;;;7.43;;
1204;SDS011;592;48.764;9.174;2023-06-22T06:23:53;12.20;;;7.57;;
1204;SDS011;592;48.764;9.174;2023-06-22T06:26:21;10.87;;;8.00;;
1204;SDS011;592;48.764;9.174;2023-06-22T06:28:52;14.30;;;8.17;;
1204;SDS011;592;48.764;9.174;2023-06-22T06:31:19;11.33;;;8.50;;
1204;SDS011;592;48.764;9.174;2023-06-22T06:33:46;12.47;;;8.47;;
1204;SDS011;592;48.764;9.174;2023-06-22T06:36:14;14.70;;;7.80;;
1204;SDS011;592;48.764;9.174;2023-06-22T06:38:41;11.00;;;7.43;;
1204;SDS011;592;48.764;9.174;2023-06-22T06:41:08;12.20;;;7.80;;
1204;SDS011;592;48.764;9.174;2023-06-22T06:43:35;14.50;;;7.80;;
1204;SDS011;592;48.764;9.174;2023-06-22T06:46:02;11.53;;;7.67;;
1204;SDS011;592;48.764;9.174;2023-06-22T06:48:31;12.17;;;7.17;;
1204;SDS011;592;48.764;9.174;2023-06-22T06:50:58;11.27;;;7.23;;
1204;SDS011;592;48.764;9.174;2023-06-22T06:53:26;11.70;;;6.83;;
1204;SDS011;592;48.764;9.174;2023-06-22T06:55:53;9.10;;;6.47;;
1204;SDS011;592;48.764;9.174;2023-06-22T06:58:20;12.97;;;7.37;;
1204;SDS011;592;48.764;9.174;2023-06-22T07:00:47;12.17;;;7.53;;
1204;SDS011;592;48.764;9.174;2023-06-22T07:03:14;11.30;;;7.03;;
1204;SDS011;592;48.764;9.174;2023-06-22T07:05:41;13.63;;;7.03;;
1204;SDS011;592;48.764;9.174;2023-06-22T07:08:08;11.50;;;6.60;;
1204;SDS011;592;48.764;9.174;2023-06-22T07:10:36;10.93;;;7.10;;
1204;SDS011;592;48.764;9.174;2023-06-22T07:13:02;9.80;;;7.10;;
1204;SDS011;592;48.764;9.174;2023-06-22T07:15:29;11.43;;;7.63;;
1204;SDS011;592;48.764;9.174;2023-06-22T07:17:56;11.17;;;6.20;;
1204;SDS011;592;48.764;9.174;2023-06-22T07:20:22;11.53;;;6.80;;
1204;SDS011;592;48.764;9.174;2023-06-22T07:22:51;10.33;;;6.80;;
1204;SDS011;592;48.764;9.174;2023-06-22T07:25:18;10.20;;;6.50;;
1204;SDS011;592;48.764;9.174;2023-06-22T07:27:46;9.97;;;6.10;;
1204;SDS011;592;48.764;9.174;2023-06-22T07:30:24;9.70;;;6.77;;
1204;SDS011;592;48.764;9.174;2023-06-22T07:32:51;10.07;;;6.63;;
1204;SDS011;592;48.764;9.174;2023-06-22T07:35:18;9.80;;;6.37;;
1204;SDS011;592;48.764;9.174;2023-06-22T07:37:46;13.73;;;6.57;;
1204;SDS011;592;48.764;9.174;2023-06-22T07:40:13;12.60;;;6.60;;
1204;SDS011;592;48.764;9.174;2023-06-22T07:42:40;11.73;;;6.53;;
1204;SDS011;592;48.764;9.174;2023-06-22T07:45:10;8.73;;;6.17;;
1204;SDS011;592;48.764;9.174;2023-06-22T07:47:37;8.80;;;6.03;;
1204;SDS011;592;48.764;9.174;2023-06-22T07:50:04;8.60;;;6.30;;
1204;SDS011;592;48.764;9.174;2023-06-22T07:52:31;10.27;;;5.43;;
1204;SDS011;592;48.764;9.174;2023-06-22T07:54:58;10.57;;;6.53;;
1204;SDS011;592;48.764;9.174;2023-06-22T07:57:25;13.13;;;6.57;;
1204;SDS011;592;48.764;9.174;2023-06-22T07:59:58;11.47;;;6.30;;
1204;SDS011;592;48.764;9.174;2023-06-22T08:02:26;9.17;;;5.50;;
1204;SDS011;592;48.764;9.174;2023-06-22T08:04:53;8.10;;;5.87;;
1204;SDS011;592;48.764;9.174;2023-06-22T08:07:20;8.17;;;4.93;;
1204;SDS011;592;48.764;9.174;2023-06-22T08:09:47;10.33;;;5.60;;
1204;SDS011;592;48.764;9.174;2023-06-22T08:12:15;9.60;;;5.77;;
1204;SDS011;592;48.764;9.174;2023-06-22T08:14:42;9.57;;;6.33;;
1204;SDS011;592;48.764;9.174;2023-06-22T08:17:11;9.60;;;5.50;;
1204;SDS011;592;48.764;9.174;2023-06-22T08:19:39;8.97;;;5.20;;
1204;SDS011;592;48.764;9.174;2023-06-22T08:22:06;8.93;;;5.13;;
1204;SDS011;592;48.764;9.174;2023-06-22T08:24:33;6.73;;;4.67;;
1204;SDS011;592;48.764;9.174;2023-06-22T08:26:59;12.47;;;6.00;;
1204;SDS011;592;48.764;9.174;2023-06-22T08:29:26;8.43;;;4.70;;
1204;SDS011;592;48.764;9.174;2023-06-22T08:31:53;9.07;;;5.07;;
1204;SDS011;592;48.764;9.174;2023-06-22T08:34:20;10.20;;;5.60;;
1204;SDS011;592;48.764;9.174;2023-06-22T08:36:49;10.10;;;5.20;;
1204;SDS011;592;48.764;9.174;2023-06-22T08:39:17;9.60;;;5.60;;
1204;SDS011;592;48.764;9.174;2023-06-22T08:41:44;7.40;;;4.93;;
1204;SDS011;592;48.764;9.174;2023-06-22T08:44:11;10.33;;;5.83;;
1204;SDS011;592;48.764;9.174;2023-06-22T08:46:38;7.70;;;5.10;;
1204;SDS011;592;48.764;9.174;2023-06-22T08:49:05;10.23;;;5.80;;
1204;SDS011;592;48.764;9.174;2023-06-22T08:51:33;9.50;;;4.93;;
1204;SDS011;592;48.764;9.174;2023-06-22T08:54:02;7.80;;;5.50;;
1204;SDS011;592;48.764;9.174;2023-06-22T08:56:29;9.30;;;5.70;;
1204;SDS011;592;48.764;9.174;2023-06-22T08:58:56;9.23;;;5.00;;
1204;SDS011;592;48.764;9.174;2023-06-22T09:01:23;7.47;;;4.70;;
1204;SDS011;592;48.764;9.174;2023-06-22T09:03:50;8.17;;;5.10;;
1204;SDS011;592;48.764;9.174;2023-06-22T09:06:22;13.30;;;6.03;;
1204;SDS011;592;48.764;9.174;2023-06-22T09:08:49;9.93;;;5.90;;
1204;SDS011;592;48.764;9.174;2023-06-22T09:11:17;7.80;;;5.13;;
1204;SDS011;592;48.764;9.174;2023-06-22T09:13:44;10.40;;;5.67;;
1204;SDS011;592;48.764;9.174;2023-06-22T09:16:12;8.70;;;5.80;;
1204;SDS011;592;48.764;9.174;2023-06-22T09:18:39;8.80;;;5.73;;
1204;SDS011;592;48.764;9.174;2023-06-22T09:21:06;10.60;;;6.73;;
1204;SDS011;592;48.764;9.174;2023-06-22T09:23:44;8.97;;;5.07;;
1204;SDS011;592;48.764;9.174;2023-06-22T09:26:26;9.40;;;5.77;;
1204;SDS011;592;48.764;9.174;2023-06-22T09:28:53;9.13;;;5.57;;
1204;SDS011;592;48.764;9.174;2023-06-22T09:31:21;9.90;;;5.67;;
1204;SDS011;592;48.764;9.174;2023-06-22T09:33:50;7.77;;;5.80;;
1204;SDS011;592;48.764;9.174;2023-06-22T09:36:18;8.30;;;5.23;;
1204;SDS011;592;48.764;9.174;2023-06-22T09:38:45;9.03;;;5.63;;
1204;SDS011;592;48.764;9.174;2023-06-22T09:41:20;9.87;;;6.00;;
1204;SDS011;592;48.764;9.174;2023-06-22T10:19:00;10.13;;;5.60;;
1204;SDS011;592;48.764;9.174;2023-06-22T10:49:45;10.17;;;6.43;;
1204;SDS011;592;48.764;9.174;2023-06-22T10:52:12;15.70;;;6.40;;
1204;SDS011;592;48.764;9.174;2023-06-22T10:54:39;10.17;;;5.87;;
1204;SDS011;592;48.764;9.174;2023-06-22T10:57:06;13.73;;;6.47;;
1204;SDS011;592;48.764;9.174;2023-06-22T10:59:33;10.20;;;6.83;;
1204;SDS011;592;48.764;9.174;2023-06-22T11:02:00;11.13;;;6.33;;
1204;SDS011;592;48.764;9.174;2023-06-22T11:04:27;12.97;;;6.60;;
1204;SDS011;592;48.764;9.174;2023-06-22T11:06:55;9.40;;;6.40;;
1204;SDS011;592;48.764;9.174;2023-06-22T11:09:22;7.70;;;5.50;;
1204;SDS011;592;48.764;9.174;2023-06-22T11:11:50;11.60;;;6.57;;
1204;SDS011;592;48.764;9.174;2023-06-22T11:14:18;14.40;;;6.67;;
1204;SDS011;592;48.764;9.174;2023-06-22T11:16:45;10.23;;;6.00;;
1204;SDS011;592;48.764;9.174;2023-06-22T11:19:12;11.07;;;6.70;;
1204;SDS011;592;48.764;9.174;2023-06-22T11:21:42;9.33;;;6.20;;
1204;SDS011;592;48.764;9.174;2023-06-22T11:24:10;11.63;;;6.93;;
1204;SDS011;592;48.764;9.174;2023-06-22T11:26:49;13.80;;;5.97;;
1204;SDS011;592;48.764;9.174;2023-06-22T11:29:16;13.63;;;7.43;;
1204;SDS011;592;48.764;9.174;2023-06-22T11:31:42;13.60;;;6.50;;
1204;SDS011;592;48.764;9.174;2023-06-22T11:34:12;11.00;;;6.30;;
1204;SDS011;592;48.764;9.174;2023-06-22T11:36:39;12.20;;;6.37;;
1204;SDS011;592;48.764;9.174;2023-06-22T11:39:07;8.83;;;5.93;;
1204;SDS011;592;48.764;9.174;2023-06-22T11:41:37;16.10;;;6.83;;
1204;SDS011;592;48.764;9.174;2023-06-22T11:44:04;13.53;;;5.50;;
1204;SDS011;592;48.764;9.174;2023-06-22T11:46:31;10.27;;;6.93;;
1204;SDS011;592;48.764;9.174;2023-06-22T11:48:58;12.20;;;7.03;;
1204;SDS011;592;48.764;9.174;2023-06-22T11:51:25;9.10;;;6.63;;
1204;SDS011;592;48.764;9.174;2023-06-22T11:53:52;9.60;;;6.80;;
1204;SDS011;592;48.764;9.174;2023-06-22T11:56:19;12.97;;;6.97;;
1204;SDS011;592;48.764;9.174;2023-06-22T11:58:47;12.73;;;7.30;;
1204;SDS011;592;48.764;9.174;2023-06-22T12:01:15;12.17;;;6.40;;
1204;SDS011;592;48.764;9.174;2023-06-22T12:03:42;10.53;;;6.90;;
1204;SDS011;592;48.764;9.174;2023-06-22T12:06:09;8.30;;;5.97;;
1204;SDS011;592;48.764;9.174;2023-06-22T12:08:36;12.27;;;7.20;;
1204;SDS011;592;48.764;9.174;2023-06-22T12:11:03;11.23;;;7.80;;
1204;SDS011;592;48.764;9.174;2023-06-22T12:13:30;12.03;;;6.27;;
1204;SDS011;592;48.764;9.174;2023-06-22T12:15:58;10.07;;;6.07;;
1204;SDS011;592;48.764;9.174;2023-06-22T12:18:24;12.90;;;7.40;;
1204;SDS011;592;48.764;9.174;2023-06-22T12:20:51;14.40;;;6.50;;
1204;SDS011;592;48.764;9.174;2023-06-22T12:23:18;10.93;;;6.60;;
1204;SDS011;592;48.764;9.174;2023-06-22T12:25:45;16.23;;;6.73;;
1204;SDS011;592;48.764;9.174;2023-06-22T12:28:11;10.33;;;6.77;;
1204;SDS011;592;48.764;9.174;2023-06-22T12:30:38;12.03;;;6.70;;
1204;SDS011;592;48.764;9.174;2023-06-22T12:33:07;9.20;;;6.10;;
1204;SDS011;592;48.764;9.174;2023-06-22T12:35:47;14.70;;;5.40;;
1204;SDS011;592;48.764;9.174;2023-06-22T12:38:14;10.97;;;7.23;;
1204;SDS011;592;48.764;9.174;2023-06-22T12:40:41;12.20;;;7.00;;
1204;SDS011;592;48.764;9.174;2023-06-22T12:43:08;9.93;;;6.43;;
1204;SDS011;592;48.764;9.174;2023-06-22T12:45:34;14.23;;;7.20;;
1204;SDS011;592;48.764;9.174;2023-06-22T12:48:02;11.13;;;7.00;;
1204;SDS011;592;48.764;9.174;2023-06-22T12:50:39;11.50;;;6.40;;
1204;SDS011;592;48.764;9.174;2023-06-22T12:53:06;13.47;;;7.30;;
1204;SDS011;592;48.764;9.174;2023-06-22T12:55:33;10.90;;;6.63;;
1204;SDS011;592;48.764;9.174;2023-06-22T12:57:59;11.80;;;6.80;;
1204;SDS011;592;48.764;9.174;2023-06-22T13:00:26;9.53;;;5.83;;
1204;SDS011;592;48.764;9.174;2023-06-22T13:02:53;10.70;;;6.87;;
1204;SDS011;592;48.764;9.174;2023-06-22T13:05:19;8.03;;;5.77;;
1204;SDS011;592;48.764;9.174;2023-06-22T13:07:48;10.83;;;6.37;;
1204;SDS011;592;48.764;9.174;2023-06-22T13:10:15;11.40;;;7.17;;
1204;SDS011;592;48.764;9.174;2023-06-22T13:12:42;12.60;;;7.30;;
1204;SDS011;592;48.764;9.174;2023-06-22T13:15:09;12.70;;;7.57;;
1204;SDS011;592;48.764;9.174;2023-06-22T13:17:35;10.43;;;7.10;;
1204;SDS011;592;48.764;9.174;2023-06-22T13:20:02;15.10;;;6.90;;
1204;SDS011;592;48.764;9.174;2023-06-22T13:22:31;13.10;;;6.80;;
1204;SDS011;592;48.764;9.174;2023-06-22T13:25:06;11.93;;;7.23;;
1204;SDS011;592;48.764;9.174;2023-06-22T13:27:36;11.20;;;7.60;;
1204;SDS011;592;48.764;9.174;2023-06-22T13:30:06;10.33;;;6.10;;
1204;SDS011;592;48.764;9.174;2023-06-22T13:32:34;17.47;;;7.17;;
1204;SDS011;592;48.764;9.174;2023-06-22T13:35:00;11.80;;;6.63;;
1204;SDS011;592;48.764;9.174;2023-06-22T13:37:27;8.87;;;6.03;;
1204;SDS011;592;48.764;9.174;2023-06-22T13:39:54;13.10;;;6.60;;
1204;SDS011;592;48.764;9.174;2023-06-22T13:42:23;10.20;;;6.63;;
1204;SDS011;592;48.764;9.174;2023-06-22T13:44:50;8.73;;;6.30;;
1204;SDS011;592;48.764;9.174;2023-06-22T13:47:17;13.50;;;6.70;;
1204;SDS011;592;48.764;9.174;2023-06-22T13:49:43;9.33;;;5.93;;
1204;SDS011;592;48.764;9.174;2023-06-22T13:52:10;12.47;;;6.60;;
1204;SDS011;592;48.764;9.174;2023-06-22T13:54:37;12.40;;;6.60;;
1204;SDS011;592;48.764;9.174;2023-06-22T13:57:04;10.60;;;6.47;;
1204;SDS011;592;48.764;9.174;2023-06-22T13:59:33;10.40;;;6.90;;
1204;SDS011;592;48.764;9.174;2023-06-22T14:02:00;10.07;;;6.90;;
1204;SDS011;592;48.764;9.174;2023-06-22T14:04:27;9.77;;;6.63;;
1204;SDS011;592;48.764;9.174;2023-06-22T14:06:53;10.20;;;6.50;;
1204;SDS011;592;48.764;9.174;2023-06-22T14:09:21;10.00;;;5.90;;
1204;SDS011;592;48.764;9.174;2023-06-22T14:11:47;10.90;;;6.10;;
1204;SDS011;592;48.764;9.174;2023-06-22T14:14:14;11.03;;;6.40;;
1204;SDS011;592;48.764;9.174;2023-06-22T14:16:42;10.37;;;6.90;;
1204;SDS011;592;48.764;9.174;2023-06-22T14:19:09;8.60;;;6.10;;
1204;SDS011;592;48.764;9.174;2023-06-22T14:21:35;12.47;;;5.93;;
1204;SDS011;592;48.764;9.174;2023-06-22T14:24:02;11.18;;;6.47;;
1204;SDS011;592;48.764;9.174;2023-06-22T14:26:29;9.17;;;5.93;;
1204;SDS011;592;48.764;9.174;2023-06-22T14:28:56;11.50;;;5.97;;
1204;SDS011;592;48.764;9.174;2023-06-22T14:31:23;20.07;;;6.00;;
1204;SDS011;592;48.764;9.174;2023-06-22T14:33:51;8.50;;;5.27;;
1204;SDS011;592;48.764;9.174;2023-06-22T14:36:18;12.30;;;5.30;;
1204;SDS011;592;48.764;9.174;2023-06-22T14:38:45;11.40;;;5.37;;
1204;SDS011;592;48.764;9.174;2023-06-22T14:41:12;13.87;;;5.37;;
1204;SDS011;592;48.764;9.174;2023-06-22T14:43:43;6.93;;;4.67;;
1204;SDS011;592;48.764;9.174;2023-06-22T14:46:10;9.50;;;5.30;;
1204;SDS011;592;48.764;9.174;2023-06-22T14:48:37;9.17;;;4.40;;
1204;SDS011;592;48.764;9.174;2023-06-22T14:51:05;12.03;;;4.50;;
1204;SDS011;592;48.764;9.174;2023-06-22T14:53:32;7.80;;;4.93;;
1204;SDS011;592;48.764;9.174;2023-06-22T14:55:58;10.00;;;3.40;;
1204;SDS011;592;48.764;9.174;2023-06-22T14:58:26;7.50;;;3.70;;
1204;SDS011;592;48.764;9.174;2023-06-22T15:00:54;7.43;;;3.47;;
1204;SDS011;592;48.764;9.174;2023-06-22T15:03:21;7.33;;;3.20;;
1204;SDS011;592;48.764;9.174;2023-06-22T15:05:52;9.33;;;3.40;;
1204;SDS011;592;48.764;9.174;2023-06-22T15:08:21;12.03;;;4.47;;
1204;SDS011;592;48.764;9.174;2023-06-22T15:10:48;9.70;;;3.63;;
1204;SDS011;592;48.764;9.174;2023-06-22T15:13:14;6.60;;;3.10;;
1204;SDS011;592;48.764;9.174;2023-06-22T15:15:42;10.57;;;3.50;;
1204;SDS011;592;48.764;9.174;2023-06-22T15:18:10;6.97;;;2.70;;
1204;SDS011;592;48.764;9.174;2023-06-22T15:20:37;7.10;;;3.60;;
1204;SDS011;592;48.764;9.174;2023-06-22T15:23:04;12.03;;;4.20;;
1204;SDS011;592;48.764;9.174;2023-06-22T15:25:36;8.00;;;3.90;;
1204;SDS011;592;48.764;9.174;2023-06-22T15:28:03;9.57;;;3.37;;
1204;SDS011;592;48.764;9.174;2023-06-22T15:30:30;14.07;;;3.77;;
1204;SDS011;592;48.764;9.174;2023-06-22T15:32:57;6.93;;;2.77;;
1204;SDS011;592;48.764;9.174;2023-06-22T15:35:23;7.07;;;2.80;;
1204;SDS011;592;48.764;9.174;2023-06-22T15:37:50;6.50;;;2.80;;
1204;SDS011;592;48.764;9.174;2023-06-22T15:40:17;6.93;;;3.50;;
1204;SDS011;592;48.764;9.174;2023-06-22T15:42:49;9.20;;;3.30;;
1204;SDS011;592;48.764;9.174;2023-06-22T15:45:16;8.53;;;2.90;;
1204;SDS011;592;48.764;9.174;2023-06-22T15:47:46;6.60;;;3.30;;
1204;SDS011;592;48.764;9.174;2023-06-22T15:50:24;10.80;;;3.60;;
1204;SDS011;592;48.764;9.174;2023-06-22T15:52:52;8.20;;;3.37;;
1204;SDS011;592;48.764;9.174;2023-06-22T15:55:21;10.23;;;3.33;;
1204;SDS011;592;48.764;9.174;2023-06-22T16:00:28;10.87;;;3.67;;
1204;SDS011;592;48.764;9.174;2023-06-22T16:02:57;6.73;;;3.30;;
1204;SDS011;592;48.764;9.174;2023-06-22T16:05:24;8.43;;;4.00;;
1204;SDS011;592;48.764;9.174;2023-06-22T16:07:51;8.60;;;4.10;;
1204;SDS011;592;48.764;9.174;2023-06-22T16:10:21;7.20;;;3.47;;
1204;SDS011;592;48.764;9.174;2023-06-22T16:12:47;7.50;;;3.20;;
1204;SDS011;592;48.764;9.174;2023-06-22T16:15:14;9.70;;;3.80;;
1204;SDS011;592;48.764;9.174;2023-06-22T16:17:43;7.37;;;3.70;;
1204;SDS011;592;48.764;9.174;2023-06-22T16:20:10;8.57;;;3.50;;
1204;SDS011;592;48.764;9.174;2023-06-22T16:22:37;7.70;;;3.80;;
1204;SDS011;592;48.764;9.174;2023-06-22T16:25:04;8.33;;;4.20;;
1204;SDS011;592;48.764;9.174;2023-06-22T16:27:31;8.90;;;2.80;;
1204;SDS011;592;48.764;9.174;2023-06-22T16:29:58;15.03;;;4.10;;